Time;durP1;ratioP1;P1;durP2;ratioP2;P2;SDS_P1;SDS_P2;PMS_P1;PMS_P2;Temp;Humidity;BMP_temperature;BMP_pressure;BME280_temperature;BME280_humidity;BME280_pressure;Samples;Min_cycle;Max_cycle;Signal;HPM_P1;HPM_P2
2023/01/17 00:01:36;;;;;;;;;;;4.70;93.60;;;;;;5093152;28;19912;-34
2023/01/17 00:12:14;;;;;;;;;;;4.80;93.50;;;;;;5092715;28;19928;-35
2023/01/17 00:14:39;;;;;;;;;;;4.80;93.50;;;;;;5092740;28;19913;-33
2023/01/17 00:17:05;;;;;;;;;;;4.80;93.50;;;;;;5092787;28;20296;-35
2023/01/17 01:34:08;;;;;;;;;;;4.20;92.40;;;;;;5091776;28;19918;-34
2023/01/17 01:36:33;;;;;;;;;;;4.20;92.40;;;;;;5091791;28;20350;-36
2023/01/17 01:38:59;;;;;;;;;;;4.10;92.40;;;;;;5090336;28;19912;-34
2023/01/17 01:41:24;;;;;;;;;;;3.90;92.10;;;;;;5092102;28;19969;-36
2023/01/17 01:43:51;;;;;;;;;;;3.80;92.20;;;;;;5091982;28;20373;-34
2023/01/17 01:46:29;;;;;;;;;;;3.70;92.40;;;;;;5091771;28;19912;-33
2023/01/17 01:48:57;;;;;;;;;;;3.60;92.50;;;;;;5091925;28;19924;-33
2023/01/17 01:51:25;;;;;;;;;;;3.50;92.60;;;;;;5091526;28;19916;-34
2023/01/17 01:53:53;;;;;;;;;;;3.50;92.60;;;;;;5091585;28;20295;-33
2023/01/17 01:56:21;;;;;;;;;;;3.50;92.70;;;;;;5091737;28;19912;-32
2023/01/17 01:58:49;;;;;;;;;;;3.40;92.90;;;;;;5094118;28;20121;-35
2023/01/17 02:01:15;;;;;;;;;;;3.40;92.90;;;;;;5095305;28;19959;-35
2023/01/17 02:03:40;;;;;;;;;;;3.40;92.90;;;;;;5095271;28;19944;-33
2023/01/17 02:06:13;;;;;;;;;;;3.40;92.90;;;;;;5095375;28;20005;-33
2023/01/17 02:08:40;;;;;;;;;;;3.40;92.90;;;;;;5095177;28;19912;-32
2023/01/17 02:11:06;;;;;;;;;;;3.40;93.00;;;;;;5095079;28;19927;-33
2023/01/17 02:13:31;;;;;;;;;;;3.40;93.00;;;;;;5095043;28;19916;-33
2023/01/17 02:15:57;;;;;;;;;;;3.40;93.10;;;;;;5095003;28;19939;-33
2023/01/17 02:18:42;;;;;;;;;;;3.30;93.10;;;;;;5095170;28;19912;-36
2023/01/17 02:21:08;;;;;;;;;;;3.30;93.00;;;;;;5094632;28;19912;-31
2023/01/17 02:23:43;;;;;;;;;;;3.20;93.00;;;;;;5094816;28;19912;-33
2023/01/17 02:26:09;;;;;;;;;;;3.20;93.00;;;;;;5094682;28;19955;-32
2023/01/17 02:28:53;;;;;;;;;;;3.20;93.10;;;;;;5095013;28;19912;-33
2023/01/17 02:31:33;;;;;;;;;;;3.10;93.10;;;;;;5094681;28;19950;-33
2023/01/17 02:34:09;;;;;;;;;;;3.10;93.10;;;;;;5095037;28;19919;-32
2023/01/17 02:36:36;;;;;;;;;;;3.10;93.10;;;;;;5094609;28;19939;-33
2023/01/17 02:39:07;;;;;;;;;;;3.00;93.20;;;;;;5094685;28;19948;-33
2023/01/17 02:41:43;;;;;;;;;;;3.00;93.20;;;;;;5094644;28;20273;-32
2023/01/17 02:44:14;;;;;;;;;;;3.00;93.30;;;;;;5094539;28;19912;-33
2023/01/17 02:46:46;;;;;;;;;;;3.00;93.30;;;;;;5094417;28;20019;-32
2023/01/17 02:49:13;;;;;;;;;;;3.00;93.30;;;;;;5094409;28;19916;-32
2023/01/17 02:51:38;;;;;;;;;;;3.00;93.30;;;;;;5094190;28;19923;-32
2023/01/17 02:54:07;;;;;;;;;;;3.10;93.30;;;;;;5092942;28;20435;-39
2023/01/17 02:56:32;;;;;;;;;;;3.10;93.30;;;;;;5094179;28;19919;-33
2023/01/17 02:59:16;;;;;;;;;;;3.20;93.40;;;;;;5094514;28;19912;-32
2023/01/17 03:01:57;;;;;;;;;;;3.30;93.30;;;;;;5094266;28;19912;-33
2023/01/17 03:04:26;;;;;;;;;;;3.30;93.20;;;;;;5094105;28;20010;-31
2023/01/17 03:06:55;;;;;;;;;;;3.30;93.20;;;;;;5094012;28;20310;-33
2023/01/17 03:09:21;;;;;;;;;;;3.30;93.10;;;;;;5093994;28;20428;-32
2023/01/17 03:11:46;;;;;;;;;;;3.30;93.00;;;;;;5093932;28;19965;-33
2023/01/17 03:14:12;;;;;;;;;;;3.30;92.90;;;;;;5094039;28;20018;-33
2023/01/17 03:16:38;;;;;;;;;;;3.30;93.00;;;;;;5093984;28;20329;-34
2023/01/17 03:19:03;;;;;;;;;;;3.30;93.00;;;;;;5094278;28;19913;-33
2023/01/17 03:21:29;;;;;;;;;;;3.20;92.90;;;;;;5093936;28;19999;-32
2023/01/17 03:23:55;;;;;;;;;;;3.10;92.90;;;;;;5094016;28;19923;-40
2023/01/17 03:26:20;;;;;;;;;;;3.10;93.00;;;;;;5093888;28;20312;-32
2023/01/17 03:28:46;;;;;;;;;;;3.10;93.10;;;;;;5093667;28;20003;-40
2023/01/17 03:31:15;;;;;;;;;;;3.10;93.20;;;;;;5093617;28;19938;-33
2023/01/17 03:33:40;;;;;;;;;;;3.10;93.10;;;;;;5093588;28;19968;-37
2023/01/17 03:36:06;;;;;;;;;;;3.10;93.10;;;;;;5093519;28;19912;-32
2023/01/17 03:38:32;;;;;;;;;;;3.10;93.10;;;;;;5093343;28;20437;-33
2023/01/17 03:40:57;;;;;;;;;;;3.00;93.10;;;;;;5092197;28;19912;-32
2023/01/17 03:43:22;;;;;;;;;;;3.00;93.20;;;;;;5093319;28;19950;-32
2023/01/17 03:45:53;;;;;;;;;;;3.00;93.20;;;;;;5093374;28;20019;-32
2023/01/17 03:48:19;;;;;;;;;;;3.00;93.20;;;;;;5093676;28;19919;-32
2023/01/17 03:50:44;;;;;;;;;;;3.00;93.20;;;;;;5093363;28;20283;-32
2023/01/17 03:53:10;;;;;;;;;;;2.90;93.20;;;;;;5093502;28;19912;-33
2023/01/17 03:55:35;;;;;;;;;;;2.90;93.20;;;;;;5093131;28;19919;-32
2023/01/17 03:58:01;;;;;;;;;;;2.90;93.20;;;;;;5093084;28;19916;-32
2023/01/17 04:00:26;;;;;;;;;;;2.90;93.30;;;;;;5091686;28;20399;-33
2023/01/17 04:02:52;;;;;;;;;;;2.90;93.30;;;;;;5092960;28;19962;-33
2023/01/17 04:05:17;;;;;;;;;;;2.90;93.30;;;;;;5093013;28;19990;-35
2023/01/17 04:07:43;;;;;;;;;;;2.90;93.20;;;;;;5092803;28;19918;-32
2023/01/17 04:10:08;;;;;;;;;;;2.80;93.20;;;;;;5093053;28;20306;-32
2023/01/17 04:12:34;;;;;;;;;;;2.80;93.20;;;;;;5092481;28;19920;-39
2023/01/17 04:14:59;;;;;;;;;;;2.80;93.30;;;;;;5092718;28;19912;-32
2023/01/17 04:17:25;;;;;;;;;;;2.80;93.20;;;;;;5092652;28;19920;-32
2023/01/17 04:19:50;;;;;;;;;;;2.70;93.30;;;;;;5092749;28;20433;-32
2023/01/17 04:22:16;;;;;;;;;;;2.70;93.30;;;;;;5091908;28;19912;-32
2023/01/17 04:24:41;;;;;;;;;;;2.70;93.30;;;;;;5091372;28;19965;-32
2023/01/17 04:27:08;;;;;;;;;;;2.70;93.30;;;;;;5092491;28;19918;-33
2023/01/17 04:29:34;;;;;;;;;;;2.70;93.30;;;;;;5092421;28;20124;-32
2023/01/17 04:31:59;;;;;;;;;;;2.70;93.30;;;;;;5092415;28;19916;-32
2023/01/17 04:34:25;;;;;;;;;;;2.70;93.30;;;;;;5092318;28;19922;-33
2023/01/17 04:36:50;;;;;;;;;;;2.60;93.20;;;;;;5092350;28;19916;-33
2023/01/17 04:39:16;;;;;;;;;;;2.70;93.30;;;;;;5092224;28;20440;-33
2023/01/17 04:41:42;;;;;;;;;;;2.70;93.30;;;;;;5092559;28;19916;-32
2023/01/17 04:44:08;;;;;;;;;;;2.70;93.30;;;;;;5092479;28;19918;-35
2023/01/17 04:46:33;;;;;;;;;;;2.70;93.30;;;;;;5092029;28;20003;-32
2023/01/17 04:48:59;;;;;;;;;;;2.70;93.30;;;;;;5092126;28;19916;-33
2023/01/17 04:51:24;;;;;;;;;;;2.70;93.30;;;;;;5092190;28;19919;-33
2023/01/17 04:53:50;;;;;;;;;;;2.70;93.30;;;;;;5092380;28;20250;-32
2023/01/17 04:56:15;;;;;;;;;;;2.70;93.30;;;;;;5092341;28;19912;-32
2023/01/17 04:58:41;;;;;;;;;;;2.70;93.30;;;;;;5091903;28;19923;-32
2023/01/17 05:01:07;;;;;;;;;;;2.70;93.30;;;;;;5091975;28;19919;-32
2023/01/17 05:03:33;;;;;;;;;;;2.70;93.30;;;;;;5091949;28;19912;-32
2023/01/17 05:05:59;;;;;;;;;;;2.70;93.30;;;;;;5092063;28;20252;-33
2023/01/17 05:08:24;;;;;;;;;;;2.70;93.20;;;;;;5092111;28;19957;-32
2023/01/17 05:10:50;;;;;;;;;;;2.70;93.20;;;;;;5091568;28;20379;-32
2023/01/17 05:13:16;;;;;;;;;;;2.70;93.50;;;;;;5091845;28;20370;-33
2023/01/17 05:15:41;;;;;;;;;;;2.70;93.20;;;;;;5091834;28;20069;-33
2023/01/17 05:18:10;;;;;;;;;;;2.70;93.10;;;;;;5091843;28;20002;-36
2023/01/17 05:20:36;;;;;;;;;;;2.60;93.10;;;;;;5091899;28;20008;-33
2023/01/17 05:23:01;;;;;;;;;;;2.70;93.10;;;;;;5091828;28;20022;-33
2023/01/17 05:25:28;;;;;;;;;;;2.60;93.10;;;;;;5091748;28;19947;-33
2023/01/17 05:27:53;;;;;;;;;;;2.70;93.20;;;;;;5091693;28;19919;-32
2023/01/17 05:30:19;;;;;;;;;;;2.70;93.20;;;;;;5091784;28;20375;-33
2023/01/17 05:32:48;;;;;;;;;;;2.70;93.20;;;;;;5092335;28;19985;-33
2023/01/17 05:35:15;;;;;;;;;;;2.70;93.20;;;;;;5096034;28;19946;-33
2023/01/17 05:37:47;;;;;;;;;;;2.70;93.20;;;;;;5095699;28;19934;-33
2023/01/17 05:40:13;;;;;;;;;;;2.80;93.20;;;;;;5095897;28;19913;-32
2023/01/17 05:42:42;;;;;;;;;;;2.70;93.10;;;;;;5095889;28;19912;-33
2023/01/17 05:45:08;;;;;;;;;;;2.70;93.20;;;;;;5095606;28;19938;-33
2023/01/17 05:47:34;;;;;;;;;;;2.70;93.20;;;;;;5095516;28;19912;-33
2023/01/17 05:49:59;;;;;;;;;;;2.80;93.20;;;;;;5095641;28;20429;-32
2023/01/17 05:52:25;;;;;;;;;;;2.80;93.30;;;;;;5095718;28;19920;-32
2023/01/17 05:54:50;;;;;;;;;;;2.90;93.30;;;;;;5095504;28;19919;-33
2023/01/17 05:57:16;;;;;;;;;;;2.90;93.30;;;;;;5095793;28;19923;-33
2023/01/17 05:59:41;;;;;;;;;;;3.00;93.30;;;;;;5095481;28;20375;-32
2023/01/17 06:02:07;;;;;;;;;;;3.00;93.50;;;;;;5095421;28;19912;-33
2023/01/17 06:04:32;;;;;;;;;;;3.00;93.20;;;;;;5095414;28;20006;-34
2023/01/17 06:06:58;;;;;;;;;;;3.00;93.10;;;;;;5095535;28;20298;-35
2023/01/17 06:09:23;;;;;;;;;;;3.00;93.10;;;;;;5095203;28;19918;-33
2023/01/17 06:11:49;;;;;;;;;;;3.00;93.10;;;;;;5095135;28;19920;-33
2023/01/17 06:14:14;;;;;;;;;;;3.00;93.40;;;;;;5095525;28;19982;-32
2023/01/17 06:16:40;;;;;;;;;;;2.90;93.10;;;;;;5095236;28;19912;-32
2023/01/17 06:19:05;;;;;;;;;;;2.90;93.10;;;;;;5095018;28;19916;-33
2023/01/17 06:21:31;;;;;;;;;;;2.90;93.10;;;;;;5095025;28;19919;-33
2023/01/17 06:23:56;;;;;;;;;;;2.90;93.10;;;;;;5094812;28;19912;-33
2023/01/17 06:26:22;;;;;;;;;;;2.90;93.10;;;;;;5095230;28;20039;-33
2023/01/17 06:28:47;;;;;;;;;;;2.90;93.20;;;;;;5095142;28;20013;-33
2023/01/17 06:31:13;;;;;;;;;;;2.90;93.10;;;;;;5094854;28;19923;-32
2023/01/17 06:33:38;;;;;;;;;;;2.90;93.10;;;;;;5094930;28;20363;-33
2023/01/17 06:36:04;;;;;;;;;;;2.90;93.10;;;;;;5094864;28;20018;-34
2023/01/17 06:38:29;;;;;;;;;;;2.90;93.10;;;;;;5094742;28;20371;-35
2023/01/17 06:40:59;;;;;;;;;;;2.90;93.10;;;;;;5094728;28;19916;-32
2023/01/17 06:43:25;;;;;;;;;;;2.90;93.10;;;;;;5094513;28;19943;-33
2023/01/17 06:45:50;;;;;;;;;;;2.90;93.10;;;;;;5094834;28;19912;-33
2023/01/17 06:48:16;;;;;;;;;;;2.90;93.10;;;;;;5094158;28;19969;-33
2023/01/17 06:50:42;;;;;;;;;;;2.90;93.00;;;;;;5094375;28;20363;-33
2023/01/17 06:53:08;;;;;;;;;;;2.90;93.10;;;;;;5094516;28;20421;-35
2023/01/17 06:55:38;;;;;;;;;;;2.90;93.10;;;;;;5094902;28;19919;-32
2023/01/17 06:58:03;;;;;;;;;;;2.90;93.10;;;;;;5094683;28;20387;-33
2023/01/17 07:00:30;;;;;;;;;;;2.80;93.00;;;;;;5094218;28;19912;-33
2023/01/17 07:02:55;;;;;;;;;;;2.80;93.00;;;;;;5094468;28;20379;-32
2023/01/17 07:05:21;;;;;;;;;;;2.90;93.10;;;;;;5092913;28;19911;-32
2023/01/17 07:07:46;;;;;;;;;;;2.80;93.00;;;;;;5094517;28;20295;-33
2023/01/17 07:10:12;;;;;;;;;;;2.80;93.10;;;;;;5094234;28;19912;-32
2023/01/17 07:12:38;;;;;;;;;;;2.80;93.00;;;;;;5093961;28;19928;-35
2023/01/17 07:15:04;;;;;;;;;;;2.80;93.00;;;;;;5094104;28;20429;-33
2023/01/17 07:17:30;;;;;;;;;;;2.80;93.00;;;;;;5094008;28;20256;-33
2023/01/17 07:19:55;;;;;;;;;;;2.80;93.00;;;;;;5094175;28;19919;-32
2023/01/17 07:22:21;;;;;;;;;;;2.80;93.00;;;;;;5093868;28;19986;-32
2023/01/17 07:24:46;;;;;;;;;;;2.80;93.00;;;;;;5094000;28;19912;-39
2023/01/17 07:27:12;;;;;;;;;;;2.80;92.90;;;;;;5093576;28;19916;-32
2023/01/17 07:29:37;;;;;;;;;;;2.70;92.90;;;;;;5093482;28;19912;-32
2023/01/17 07:32:03;;;;;;;;;;;2.80;92.90;;;;;;5093429;28;20283;-32
2023/01/17 07:34:28;;;;;;;;;;;2.80;92.90;;;;;;5093785;28;19947;-34
2023/01/17 07:36:54;;;;;;;;;;;2.80;93.00;;;;;;5093336;28;19919;-32
2023/01/17 07:39:19;;;;;;;;;;;2.80;93.00;;;;;;5093698;28;19916;-34
2023/01/17 07:41:45;;;;;;;;;;;2.90;93.00;;;;;;5093632;28;19916;-31
2023/01/17 07:44:11;;;;;;;;;;;2.90;93.00;;;;;;5093562;28;19912;-32
2023/01/17 07:46:37;;;;;;;;;;;2.90;93.00;;;;;;5093272;28;19912;-32
2023/01/17 07:49:02;;;;;;;;;;;2.90;92.90;;;;;;5093368;28;19919;-32
2023/01/17 07:51:28;;;;;;;;;;;2.90;92.90;;;;;;5093529;28;19935;-33
2023/01/17 07:53:53;;;;;;;;;;;2.90;92.90;;;;;;5093346;28;20401;-32
2023/01/17 07:56:19;;;;;;;;;;;2.90;92.90;;;;;;5092832;28;19912;-32
2023/01/17 07:58:44;;;;;;;;;;;2.80;92.90;;;;;;5093259;28;19926;-35
2023/01/17 08:01:11;;;;;;;;;;;2.80;92.90;;;;;;5093354;28;19999;-32
2023/01/17 08:03:40;;;;;;;;;;;2.80;92.90;;;;;;5093413;28;19965;-32
2023/01/17 08:06:12;;;;;;;;;;;2.70;92.90;;;;;;5093467;28;19912;-32
2023/01/17 08:08:37;;;;;;;;;;;2.70;92.90;;;;;;5093074;28;19934;-43
2023/01/17 08:11:03;;;;;;;;;;;2.70;93.00;;;;;;5092824;28;19999;-32
2023/01/17 08:13:28;;;;;;;;;;;2.70;93.00;;;;;;5093233;28;19916;-33
2023/01/17 08:15:54;;;;;;;;;;;2.80;93.00;;;;;;5092874;28;20346;-33
2023/01/17 08:18:19;;;;;;;;;;;2.70;93.00;;;;;;5092978;28;19947;-33
2023/01/17 08:20:45;;;;;;;;;;;2.80;93.00;;;;;;5092764;28;19956;-32
2023/01/17 08:23:11;;;;;;;;;;;2.80;93.00;;;;;;5092767;28;20414;-33
2023/01/17 08:25:36;;;;;;;;;;;2.80;92.90;;;;;;5092595;28;20386;-32
2023/01/17 08:28:02;;;;;;;;;;;2.70;92.90;;;;;;5092776;28;20379;-31
2023/01/17 08:30:28;;;;;;;;;;;2.70;92.90;;;;;;5092603;28;19912;-32
2023/01/17 08:32:53;;;;;;;;;;;2.80;92.90;;;;;;5092594;28;19920;-32
2023/01/17 08:35:19;;;;;;;;;;;2.70;92.90;;;;;;5091246;28;19919;-33
2023/01/17 08:37:45;;;;;;;;;;;2.70;92.90;;;;;;5092786;28;19958;-39
2023/01/17 08:40:10;;;;;;;;;;;2.80;93.00;;;;;;5092520;28;20304;-33
2023/01/17 08:42:38;;;;;;;;;;;2.80;92.90;;;;;;5092495;28;19939;-33
2023/01/17 08:45:04;;;;;;;;;;;2.80;92.90;;;;;;5092506;28;19995;-32
2023/01/17 08:47:30;;;;;;;;;;;2.90;92.90;;;;;;5092778;28;19947;-36
2023/01/17 08:49:58;;;;;;;;;;;2.90;92.90;;;;;;5092660;28;19915;-38
2023/01/17 08:52:23;;;;;;;;;;;3.00;92.80;;;;;;5092670;28;20238;-33
2023/01/17 08:54:49;;;;;;;;;;;3.00;92.80;;;;;;5092311;28;19960;-35
2023/01/17 08:57:14;;;;;;;;;;;3.10;92.70;;;;;;5092503;28;19912;-32
2023/01/17 08:59:41;;;;;;;;;;;3.10;92.70;;;;;;5092414;28;19908;-35
2023/01/17 09:02:13;;;;;;;;;;;3.20;92.70;;;;;;5092083;28;19908;-33
2023/01/17 09:04:39;;;;;;;;;;;3.30;92.70;;;;;;5092053;28;19974;-33
2023/01/17 09:07:06;;;;;;;;;;;3.30;92.60;;;;;;5092106;28;19920;-33
2023/01/17 09:09:31;;;;;;;;;;;3.30;92.40;;;;;;5092315;28;20139;-40
2023/01/17 09:11:57;;;;;;;;;;;3.30;92.50;;;;;;5091997;28;20006;-32
2023/01/17 09:14:23;;;;;;;;;;;3.30;92.30;;;;;;5092160;28;19931;-33
2023/01/17 09:16:48;;;;;;;;;;;3.30;92.30;;;;;;5092069;28;19908;-35
2023/01/17 09:19:14;;;;;;;;;;;3.30;92.30;;;;;;5092310;28;19912;-34
2023/01/17 09:21:39;;;;;;;;;;;3.30;92.40;;;;;;5092130;28;20352;-35
2023/01/17 09:24:05;;;;;;;;;;;3.30;92.30;;;;;;5092320;28;20237;-33
2023/01/17 09:26:31;;;;;;;;;;;3.30;92.30;;;;;;5092063;28;20355;-33
2023/01/17 09:28:57;;;;;;;;;;;3.30;92.30;;;;;;5091996;28;19908;-33
2023/01/17 09:31:23;;;;;;;;;;;3.30;92.30;;;;;;5091893;28;20222;-36
2023/01/17 09:33:49;;;;;;;;;;;3.30;92.30;;;;;;5092217;28;19951;-33
2023/01/17 09:36:14;;;;;;;;;;;3.30;92.20;;;;;;5092302;28;20185;-33
2023/01/17 09:38:40;;;;;;;;;;;3.30;92.20;;;;;;5092070;28;19951;-33
2023/01/17 09:41:21;;;;;;;;;;;3.20;92.20;;;;;;5092169;28;19935;-32
2023/01/17 09:43:48;;;;;;;;;;;3.20;92.20;;;;;;5092056;28;19915;-34
2023/01/17 09:46:22;;;;;;;;;;;3.20;92.20;;;;;;5092236;28;20470;-33
2023/01/17 09:48:55;;;;;;;;;;;3.10;92.10;;;;;;5091762;28;19908;-36
2023/01/17 09:51:25;;;;;;;;;;;3.10;92.00;;;;;;5092050;28;19950;-47
2023/01/17 09:53:51;;;;;;;;;;;3.10;92.20;;;;;;5091810;28;19908;-35
2023/01/17 09:56:38;;;;;;;;;;;3.10;92.20;;;;;;5090432;28;19912;-38
2023/01/17 09:59:12;;;;;;;;;;;3.20;92.20;;;;;;5091739;28;19908;-35
2023/01/17 10:01:52;;;;;;;;;;;3.10;92.10;;;;;;5091602;28;19908;-32
2023/01/17 10:04:29;;;;;;;;;;;3.10;92.10;;;;;;5091954;28;20355;-35
2023/01/17 10:06:57;;;;;;;;;;;3.20;92.20;;;;;;5091714;28;19912;-32
2023/01/17 10:09:41;;;;;;;;;;;3.20;92.50;;;;;;5091724;28;19958;-32
2023/01/17 10:12:09;;;;;;;;;;;3.20;92.10;;;;;;5091394;28;19920;-33
2023/01/17 10:14:41;;;;;;;;;;;3.20;92.20;;;;;;5091854;28;19908;-33
2023/01/17 10:17:15;;;;;;;;;;;3.20;92.10;;;;;;5091620;28;20053;-32
2023/01/17 10:19:54;;;;;;;;;;;3.20;92.10;;;;;;5093638;28;20240;-33
2023/01/17 10:22:22;;;;;;;;;;;3.20;92.30;;;;;;5095714;28;19914;-35
2023/01/17 10:25:12;;;;;;;;;;;3.20;92.10;;;;;;5095205;28;19908;-32
2023/01/17 10:27:54;;;;;;;;;;;3.20;92.10;;;;;;5095118;28;19915;-34
2023/01/17 10:30:24;;;;;;;;;;;3.20;92.10;;;;;;5095223;28;19915;-34
2023/01/17 10:32:49;;;;;;;;;;;3.20;92.20;;;;;;5095034;28;20314;-36
2023/01/17 10:35:18;;;;;;;;;;;3.30;92.20;;;;;;5095171;28;19912;-34
2023/01/17 10:37:44;;;;;;;;;;;3.30;92.10;;;;;;5094890;28;19908;-32
2023/01/17 10:40:16;;;;;;;;;;;3.30;92.00;;;;;;5094924;28;19915;-34
2023/01/17 10:42:45;;;;;;;;;;;3.30;92.00;;;;;;5095277;28;19912;-34
2023/01/17 10:45:39;;;;;;;;;;;3.40;92.10;;;;;;5095131;28;20057;-34
2023/01/17 10:48:23;;;;;;;;;;;3.40;92.10;;;;;;5081594;28;19912;-33
2023/01/17 10:50:57;;;;;;;;;;;3.50;92.00;;;;;;5094632;28;19923;-34
2023/01/17 10:53:36;;;;;;;;;;;3.50;92.00;;;;;;5094761;28;19919;-34
2023/01/17 10:56:02;;;;;;;;;;;3.60;91.90;;;;;;5094680;28;20006;-34
2023/01/17 10:58:27;;;;;;;;;;;3.60;91.90;;;;;;5094793;28;19986;-34
2023/01/17 11:01:00;;;;;;;;;;;3.60;91.90;;;;;;5094824;28;19915;-32
2023/01/17 11:03:27;;;;;;;;;;;3.70;91.90;;;;;;5094501;28;19912;-34
2023/01/17 11:06:19;;;;;;;;;;;3.70;91.90;;;;;;5094645;28;20235;-36
2023/01/17 11:09:04;;;;;;;;;;;3.70;91.80;;;;;;5091168;28;20381;-34
2023/01/17 11:11:33;;;;;;;;;;;3.70;91.80;;;;;;5094261;28;19924;-36
2023/01/17 11:13:59;;;;;;;;;;;3.70;91.70;;;;;;5092893;28;19961;-33
2023/01/17 11:16:27;;;;;;;;;;;3.70;91.70;;;;;;5094297;28;19912;-31
2023/01/17 11:19:04;;;;;;;;;;;3.70;91.70;;;;;;5094513;28;19909;-38
2023/01/17 11:21:30;;;;;;;;;;;3.70;91.70;;;;;;5094267;28;20339;-34
2023/01/17 11:23:56;;;;;;;;;;;3.80;91.70;;;;;;5093985;28;20394;-33
2023/01/17 11:26:23;;;;;;;;;;;3.80;91.70;;;;;;5093884;28;19908;-35
2023/01/17 11:28:50;;;;;;;;;;;3.80;91.60;;;;;;5094028;28;20360;-33
2023/01/17 11:31:16;;;;;;;;;;;3.70;91.50;;;;;;5093649;28;19916;-33
2023/01/17 11:33:47;;;;;;;;;;;3.70;91.50;;;;;;5093841;28;19912;-33
2023/01/17 11:36:17;;;;;;;;;;;3.70;91.60;;;;;;5093813;28;19915;-32
2023/01/17 11:39:04;;;;;;;;;;;3.70;91.60;;;;;;5093716;28;19934;-35
2023/01/17 11:41:34;;;;;;;;;;;3.70;91.50;;;;;;5093967;28;19947;-33
2023/01/17 11:44:00;;;;;;;;;;;3.80;91.40;;;;;;5093632;28;19908;-33
2023/01/17 11:46:28;;;;;;;;;;;3.80;91.30;;;;;;5093483;28;20018;-33
2023/01/17 11:48:54;;;;;;;;;;;3.90;91.30;;;;;;5093515;28;19908;-33
2023/01/17 11:51:24;;;;;;;;;;;3.90;91.30;;;;;;5093691;28;20003;-35
2023/01/17 11:53:50;;;;;;;;;;;4.00;91.40;;;;;;5093872;28;19908;-33
2023/01/17 11:56:29;;;;;;;;;;;4.00;91.40;;;;;;5093582;28;19945;-33
2023/01/17 11:59:13;;;;;;;;;;;4.10;91.30;;;;;;5093600;28;19918;-33
2023/01/17 12:01:49;;;;;;;;;;;4.20;91.50;;;;;;5093195;28;19962;-33
2023/01/17 12:04:21;;;;;;;;;;;4.20;91.10;;;;;;5093164;28;19911;-33
2023/01/17 12:06:48;;;;;;;;;;;4.20;91.10;;;;;;5093383;28;19908;-40
2023/01/17 12:09:14;;;;;;;;;;;4.20;91.00;;;;;;5093446;28;20293;-33
2023/01/17 12:15:00;;;;;;;;;;;4.10;90.80;;;;;;5093178;28;19957;-41
2023/01/17 12:17:33;;;;;;;;;;;4.00;90.80;;;;;;5089727;28;19952;-33
2023/01/17 12:20:03;;;;;;;;;;;4.10;90.90;;;;;;5092778;28;19958;-34
2023/01/17 12:22:33;;;;;;;;;;;4.00;90.80;;;;;;5093099;28;19961;-33
2023/01/17 12:25:17;;;;;;;;;;;4.00;90.80;;;;;;5093027;28;19908;-34
2023/01/17 12:27:52;;;;;;;;;;;3.90;90.80;;;;;;5092805;28;20297;-35
2023/01/17 12:30:17;;;;;;;;;;;4.00;90.80;;;;;;5092969;28;19908;-33
2023/01/17 12:32:48;;;;;;;;;;;4.00;90.70;;;;;;5092659;28;20346;-36
2023/01/17 12:35:18;;;;;;;;;;;4.00;90.60;;;;;;5092690;28;19908;-33
2023/01/17 12:37:45;;;;;;;;;;;4.10;90.50;;;;;;5092927;28;19908;-33
2023/01/17 12:40:21;;;;;;;;;;;4.10;90.50;;;;;;5092869;28;19951;-34
2023/01/17 12:42:57;;;;;;;;;;;4.20;90.40;;;;;;5091983;28;19908;-32
2023/01/17 12:45:27;;;;;;;;;;;4.20;90.30;;;;;;5092566;28;19908;-36
2023/01/17 12:47:57;;;;;;;;;;;4.30;90.10;;;;;;5092849;28;19908;-34
2023/01/17 12:50:41;;;;;;;;;;;4.30;90.00;;;;;;5092371;28;19958;-33
2023/01/17 12:53:25;;;;;;;;;;;4.30;90.00;;;;;;5092484;28;19913;-33
2023/01/17 12:55:58;;;;;;;;;;;4.30;89.50;;;;;;5092441;28;19908;-33
2023/01/17 12:58:25;;;;;;;;;;;4.40;89.80;;;;;;5092336;28;19936;-33
2023/01/17 13:01:03;;;;;;;;;;;4.40;89.70;;;;;;5092537;28;19915;-34
2023/01/17 13:03:34;;;;;;;;;;;4.50;89.30;;;;;;5092416;28;19914;-35
2023/01/17 13:06:00;;;;;;;;;;;4.50;88.50;;;;;;5092195;28;19912;-33
2023/01/17 13:08:35;;;;;;;;;;;4.50;89.00;;;;;;5092147;28;20290;-34
2023/01/17 13:11:13;;;;;;;;;;;4.50;89.00;;;;;;5092260;28;19912;-34
2023/01/17 13:13:40;;;;;;;;;;;4.60;88.90;;;;;;5092076;28;20306;-33
2023/01/17 13:16:16;;;;;;;;;;;4.60;88.90;;;;;;5092043;28;19920;-34
2023/01/17 13:18:43;;;;;;;;;;;4.70;88.40;;;;;;5092131;28;19912;-36
2023/01/17 13:21:17;;;;;;;;;;;4.70;88.40;;;;;;5092152;28;20391;-33
2023/01/17 13:23:45;;;;;;;;;;;4.80;88.00;;;;;;5092344;28;19908;-34
2023/01/17 13:26:19;;;;;;;;;;;4.80;88.10;;;;;;5090871;28;20343;-42
2023/01/17 13:28:59;;;;;;;;;;;4.80;88.00;;;;;;5092029;28;19970;-51
2023/01/17 13:31:32;;;;;;;;;;;4.90;88.60;;;;;;5091840;28;19950;-40
2023/01/17 13:34:06;;;;;;;;;;;4.90;87.30;;;;;;5092375;28;19968;-39
2023/01/17 13:36:32;;;;;;;;;;;4.90;87.70;;;;;;5092215;28;20009;-45
2023/01/17 13:38:57;;;;;;;;;;;4.90;86.80;;;;;;5091863;28;20367;-33
2023/01/17 13:41:35;;;;;;;;;;;4.90;86.90;;;;;;5092052;28;20324;-34
2023/01/17 13:46:55;;;;;;;;;;;4.90;86.70;;;;;;5092313;28;20318;-34
2023/01/17 13:49:33;;;;;;;;;;;5.00;86.80;;;;;;5091983;28;20381;-34
2023/01/17 13:52:17;;;;;;;;;;;5.00;86.50;;;;;;5091663;28;19912;-34
2023/01/17 13:54:44;;;;;;;;;;;5.00;86.00;;;;;;5094271;28;19974;-36
2023/01/17 13:57:22;;;;;;;;;;;5.00;85.30;;;;;;5096095;28;19920;-33
2023/01/17 13:59:47;;;;;;;;;;;5.00;85.80;;;;;;5094254;28;20389;-42
2023/01/17 14:02:31;;;;;;;;;;;5.00;85.70;;;;;;5095723;28;19908;-34
2023/01/17 14:05:08;;;;;;;;;;;5.00;85.70;;;;;;5095814;28;19915;-33
2023/01/17 14:07:34;;;;;;;;;;;5.00;84.00;;;;;;5095491;28;19915;-35
2023/01/17 14:10:00;;;;;;;;;;;5.00;84.20;;;;;;5095468;28;19922;-33
2023/01/17 14:12:30;;;;;;;;;;;5.00;84.10;;;;;;5095531;28;19921;-34
2023/01/17 14:14:57;;;;;;;;;;;5.00;83.50;;;;;;5095343;28;19961;-33
2023/01/17 14:17:24;;;;;;;;;;;5.00;84.20;;;;;;5095295;28;19917;-35
2023/01/17 14:20:02;;;;;;;;;;;5.00;84.60;;;;;;5095431;28;20508;-38
2023/01/17 14:22:30;;;;;;;;;;;5.10;84.50;;;;;;5095182;28;19941;-43
2023/01/17 14:25:01;;;;;;;;;;;5.10;84.20;;;;;;5095218;28;19942;-33
2023/01/17 14:27:28;;;;;;;;;;;5.20;83.50;;;;;;5095158;28;20002;-33
2023/01/17 14:29:57;;;;;;;;;;;5.10;81.30;;;;;;5095317;28;19915;-34
2023/01/17 14:32:28;;;;;;;;;;;5.10;81.80;;;;;;5095241;28;19912;-33
2023/01/17 14:34:53;;;;;;;;;;;5.10;82.60;;;;;;5094921;28;19954;-34
2023/01/17 14:37:31;;;;;;;;;;;5.10;81.90;;;;;;5095166;28;20313;-33
2023/01/17 14:39:57;;;;;;;;;;;5.00;82.10;;;;;;5094952;28;19916;-32
2023/01/17 14:42:23;;;;;;;;;;;5.00;81.40;;;;;;5094670;28;19908;-33
2023/01/17 14:44:59;;;;;;;;;;;4.90;79.40;;;;;;5094875;28;19908;-33
2023/01/17 14:47:27;;;;;;;;;;;4.90;79.70;;;;;;5095138;28;19912;-35
2023/01/17 14:50:08;;;;;;;;;;;4.80;80.10;;;;;;5094738;28;19909;-37
2023/01/17 14:52:33;;;;;;;;;;;4.70;80.90;;;;;;5094637;28;19919;-36
2023/01/17 14:55:03;;;;;;;;;;;4.70;80.80;;;;;;5095031;28;19908;-49
2023/01/17 14:57:29;;;;;;;;;;;4.60;81.40;;;;;;5094604;28;19947;-38
2023/01/17 15:00:13;;;;;;;;;;;4.60;81.30;;;;;;5094972;28;19944;-36
2023/01/17 15:02:40;;;;;;;;;;;4.50;81.20;;;;;;5093288;28;20369;-34
2023/01/17 15:05:08;;;;;;;;;;;4.50;81.70;;;;;;5094590;28;19931;-36
2023/01/17 15:07:35;;;;;;;;;;;4.40;82.00;;;;;;5094581;28;19908;-37
2023/01/17 15:10:02;;;;;;;;;;;4.40;82.20;;;;;;5094748;28;19939;-33
2023/01/17 15:12:28;;;;;;;;;;;4.30;81.60;;;;;;5094288;28;19920;-34
2023/01/17 15:14:57;;;;;;;;;;;4.30;82.00;;;;;;5094766;28;20030;-36
2023/01/17 15:17:23;;;;;;;;;;;4.20;82.20;;;;;;5094569;28;20248;-35
2023/01/17 15:20:12;;;;;;;;;;;4.20;82.40;;;;;;5094151;28;20298;-38
2023/01/17 15:22:37;;;;;;;;;;;4.20;82.60;;;;;;5094048;28;20333;-37
2023/01/17 15:25:03;;;;;;;;;;;4.20;82.90;;;;;;5094124;28;19934;-35
2023/01/17 15:27:29;;;;;;;;;;;4.10;82.90;;;;;;5094468;28;19931;-34
2023/01/17 15:30:00;;;;;;;;;;;4.10;83.10;;;;;;5094110;28;19912;-36
2023/01/17 15:32:29;;;;;;;;;;;4.10;83.10;;;;;;5094146;28;20045;-35
2023/01/17 15:34:55;;;;;;;;;;;4.00;83.20;;;;;;5094284;28;19912;-37
2023/01/17 15:37:28;;;;;;;;;;;4.00;83.40;;;;;;5093840;28;20378;-44
2023/01/17 15:40:01;;;;;;;;;;;4.00;83.60;;;;;;5093736;28;19912;-35
2023/01/17 15:42:30;;;;;;;;;;;4.00;83.70;;;;;;5093852;28;19909;-33
2023/01/17 15:44:58;;;;;;;;;;;3.90;83.80;;;;;;5093647;28;19930;-37
2023/01/17 15:47:34;;;;;;;;;;;3.90;83.90;;;;;;5092298;28;20355;-38
2023/01/17 15:50:01;;;;;;;;;;;3.90;83.90;;;;;;5093893;28;19908;-34
2023/01/17 15:52:27;;;;;;;;;;;3.80;83.90;;;;;;5093733;28;19912;-35
2023/01/17 15:54:57;;;;;;;;;;;3.80;83.80;;;;;;5092288;28;19908;-35
2023/01/17 15:57:24;;;;;;;;;;;3.80;83.80;;;;;;5093465;28;19915;-35
2023/01/17 15:59:50;;;;;;;;;;;3.80;83.90;;;;;;5093613;28;20409;-33
2023/01/17 16:02:23;;;;;;;;;;;3.70;83.90;;;;;;5093677;28;19908;-48
2023/01/17 16:04:49;;;;;;;;;;;3.70;84.10;;;;;;5092173;28;19908;-36
2023/01/17 16:07:19;;;;;;;;;;;3.60;84.10;;;;;;5093204;28;19912;-38
2023/01/17 16:09:45;;;;;;;;;;;3.60;84.20;;;;;;5093409;28;19915;-37